^^
Station Historical Data
Daily Summary for December 5, 2017 Units:  Both    English   Metric
« Previous Day
Next Day »
Daily Weekly Monthly Yearly Custom
  High: Low: Average:
Temperature: TemperatureF °F /  -17.8 °C 65.8 °F /  18.8 °C 77.4 °F /  25.2 °C
Dew Point: DewpointF °F /  -17.8 °C 41.2 °F /  5.1 °C 47.4 °F /  8.6 °C
Humidity: Humidity% 26% 35%
Wind Speed: WindSpeedMPHmph /  0km/h - 7.7mph /  12.4km/h
Wind Gust: WindSpeedGustMPHmph /  0km/h - -
Wind- - ESE
Pressure: PressureIn in /  0 hPa 30.07 in /  1018.2 hPa -
Precipitation: 0.00 in /  0 mm    
Historical Graphs
 
 
Tabular Data for December 5, 2017
Time Temperature Dew Point Pressure Wind Wind Speed Wind Gust Humidity Rainfall Rate (Hourly) solar Conditions
TemperatureF °F /  -17.8 °C DewpointF °F /  -17.8 °C PressureInin /  0hPa Calm     Humidity% HourlyPrecipInin /  0mm SoftwareType W/m2 Conditions
07:52 65.8 °F /  18.8 °C 51.6 °F /  10.9 °C 30.15in /  1020.9hPa ENE 11.0mph /  17.7km/h 15.0mph /  24.1km/h 60% 0.00in /  0mm meteobridge W/m2
07:58 66.4 °F /  19.1 °C 51.6 °F /  10.9 °C 30.15in /  1020.9hPa NNE 11.0mph /  17.7km/h 13.0mph /  20.9km/h 59% 0.00in /  0mm meteobridge W/m2
08:04 66.4 °F /  19.1 °C 51.6 °F /  10.9 °C 30.16in /  1021.2hPa NE 4.9mph /  7.9km/h 12.0mph /  19.3km/h 59% 0.00in /  0mm meteobridge W/m2
08:10 66.6 °F /  19.2 °C 51.3 °F /  10.7 °C 30.15in /  1020.9hPa NNE 12.1mph /  19.5km/h 17.0mph /  27.4km/h 58% 0.00in /  0mm meteobridge W/m2
08:16 67.1 °F /  19.5 °C 51.4 °F /  10.8 °C 30.16in /  1021.2hPa NNE 12.1mph /  19.5km/h 14.0mph /  22.5km/h 57% 0.00in /  0mm meteobridge W/m2
08:22 67.3 °F /  19.6 °C 51.4 °F /  10.8 °C 30.16in /  1021.2hPa NE 8.9mph /  14.3km/h 11.0mph /  17.7km/h 57% 0.00in /  0mm meteobridge W/m2
08:28 68.2 °F /  20.1 °C 51.8 °F /  11 °C 30.16in /  1021.2hPa NNE 12.1mph /  19.5km/h 15.0mph /  24.1km/h 56% 0.00in /  0mm meteobridge W/m2
08:34 68.7 °F /  20.4 °C 51.4 °F /  10.8 °C 30.17in /  1021.6hPa ENE 4.0mph /  6.4km/h 11.0mph /  17.7km/h 54% 0.00in /  0mm meteobridge W/m2
08:41 69.8 °F /  21 °C 52.3 °F /  11.3 °C 30.16in /  1021.2hPa NE 6.9mph /  11.1km/h 11.0mph /  17.7km/h 54% 0.00in /  0mm meteobridge W/m2
08:47 71.1 °F /  21.7 °C 52.0 °F /  11.1 °C 30.17in /  1021.6hPa NE 6.9mph /  11.1km/h 11.0mph /  17.7km/h 51% 0.00in /  0mm meteobridge W/m2
08:53 71.4 °F /  21.9 °C 52.3 °F /  11.3 °C 30.17in /  1021.6hPa NNW 11.0mph /  17.7km/h 14.0mph /  22.5km/h 51% 0.00in /  0mm meteobridge W/m2
08:59 71.8 °F /  22.1 °C 52.7 °F /  11.5 °C 30.17in /  1021.6hPa ENE 2.9mph /  4.7km/h 7.0mph /  11.3km/h 51% 0.00in /  0mm meteobridge W/m2
09:05 72.3 °F /  22.4 °C 52.2 °F /  11.2 °C 30.17in /  1021.6hPa ENE 2.9mph /  4.7km/h 10.0mph /  16.1km/h 49% 0.00in /  0mm meteobridge W/m2
09:11 72.1 °F /  22.3 °C 52.0 °F /  11.1 °C 30.17in /  1021.6hPa NE 2.9mph /  4.7km/h 14.0mph /  22.5km/h 49% 0.00in /  0mm meteobridge W/m2
09:17 72.3 °F /  22.4 °C 52.2 °F /  11.2 °C 30.17in /  1021.6hPa Calm   11.0mph /  17.7km/h 49% 0.00in /  0mm meteobridge W/m2
09:23 72.3 °F /  22.4 °C 51.4 °F /  10.8 °C 30.17in /  1021.6hPa NNE 6.0mph /  9.7km/h 16.0mph /  25.7km/h 48% 0.00in /  0mm meteobridge W/m2
09:29 71.8 °F /  22.1 °C 51.1 °F /  10.6 °C 30.17in /  1021.6hPa ENE 4.9mph /  7.9km/h 16.0mph /  25.7km/h 48% 0.00in /  0mm meteobridge W/m2
09:36 72.3 °F /  22.4 °C 50.4 °F /  10.2 °C 30.17in /  1021.6hPa ENE 2.9mph /  4.7km/h 9.0mph /  14.5km/h 46% 0.00in /  0mm meteobridge W/m2
09:42 73.0 °F /  22.8 °C 51.6 °F /  10.9 °C 30.17in /  1021.6hPa NE 4.9mph /  7.9km/h 11.0mph /  17.7km/h 47% 0.00in /  0mm meteobridge W/m2
09:48 74.3 °F /  23.5 °C 52.2 °F /  11.2 °C 30.17in /  1021.6hPa NE 4.9mph /  7.9km/h 10.0mph /  16.1km/h 46% 0.00in /  0mm meteobridge W/m2
09:54 74.7 °F /  23.7 °C 51.3 °F /  10.7 °C 30.17in /  1021.6hPa North 6.9mph /  11.1km/h 13.0mph /  20.9km/h 44% 0.00in /  0mm meteobridge W/m2
10:00 75.0 °F /  23.9 °C 51.6 °F /  10.9 °C 30.17in /  1021.6hPa NE 12.1mph /  19.5km/h 14.0mph /  22.5km/h 44% 0.00in /  0mm meteobridge W/m2
10:06 75.0 °F /  23.9 °C 51.6 °F /  10.9 °C 30.16in /  1021.2hPa NNE 17.0mph /  27.4km/h 20.0mph /  32.2km/h 44% 0.00in /  0mm meteobridge W/m2
10:12 74.7 °F /  23.7 °C 50.0 °F /  10 °C 30.17in /  1021.6hPa NNE 16.1mph /  25.9km/h 21.0mph /  33.8km/h 42% 0.00in /  0mm meteobridge W/m2
10:18 74.5 °F /  23.6 °C 51.1 °F /  10.6 °C 30.17in /  1021.6hPa NE 12.1mph /  19.5km/h 12.1mph /  19.5km/h 44% 0.00in /  0mm meteobridge W/m2
10:24 75.2 °F /  24 °C 50.5 °F /  10.3 °C 30.17in /  1021.6hPa NE 17.0mph /  27.4km/h 20.0mph /  32.2km/h 42% 0.00in /  0mm meteobridge W/m2
10:31 74.8 °F /  23.8 °C 50.9 °F /  10.5 °C 30.16in /  1021.2hPa North 8.1mph /  13km/h 18.0mph /  29km/h 43% 0.00in /  0mm meteobridge W/m2
10:37 75.9 °F /  24.4 °C 51.8 °F /  11 °C 30.17in /  1021.6hPa ESE 0.9mph /  1.4km/h 18.0mph /  29km/h 43% 0.00in /  0mm meteobridge W/m2
10:43 77.2 °F /  25.1 °C 51.6 °F /  10.9 °C 30.16in /  1021.2hPa NE 4.9mph /  7.9km/h 7.0mph /  11.3km/h 41% 0.00in /  0mm meteobridge W/m2
10:49 77.0 °F /  25 °C 51.4 °F /  10.8 °C 30.17in /  1021.6hPa ENE 6.0mph /  9.7km/h 13.0mph /  20.9km/h 41% 0.00in /  0mm meteobridge W/m2
10:55 76.6 °F /  24.8 °C 51.3 °F /  10.7 °C 30.17in /  1021.6hPa ENE 11.0mph /  17.7km/h 17.0mph /  27.4km/h 41% 0.00in /  0mm meteobridge W/m2
11:01 76.1 °F /  24.5 °C 50.7 °F /  10.4 °C 30.17in /  1021.6hPa NE 10.1mph /  16.3km/h 14.0mph /  22.5km/h 41% 0.00in /  0mm meteobridge W/m2
11:07 76.3 °F /  24.6 °C 50.9 °F /  10.5 °C 30.17in /  1021.6hPa NNE 2.0mph /  3.2km/h 13.0mph /  20.9km/h 41% 0.00in /  0mm meteobridge W/m2
11:13 76.3 °F /  24.6 °C 50.9 °F /  10.5 °C 30.17in /  1021.6hPa ESE 4.9mph /  7.9km/h 5.0mph /  8km/h 41% 0.00in /  0mm meteobridge W/m2
11:19 78.3 °F /  25.7 °C 50.5 °F /  10.3 °C 30.16in /  1021.2hPa ENE 4.0mph /  6.4km/h 15.0mph /  24.1km/h 38% 0.00in /  0mm meteobridge W/m2
11:26 78.6 °F /  25.9 °C 50.2 °F /  10.1 °C 30.17in /  1021.6hPa NE 4.9mph /  7.9km/h 12.0mph /  19.3km/h 37% 0.00in /  0mm meteobridge W/m2
11:32 77.7 °F /  25.4 °C 50.0 °F /  10 °C 30.16in /  1021.2hPa ESE 2.9mph /  4.7km/h 7.0mph /  11.3km/h 38% 0.00in /  0mm meteobridge W/m2
11:38 77.2 °F /  25.1 °C 49.6 °F /  9.8 °C 30.16in /  1021.2hPa NE 10.1mph /  16.3km/h 14.0mph /  22.5km/h 38% 0.00in /  0mm meteobridge W/m2
11:44 77.5 °F /  25.3 °C 49.3 °F /  9.6 °C 30.16in /  1021.2hPa NNE 6.0mph /  9.7km/h 8.0mph /  12.9km/h 37% 0.00in /  0mm meteobridge W/m2
11:50 79.0 °F /  26.1 °C 49.8 °F /  9.9 °C 30.16in /  1021.2hPa NE 4.9mph /  7.9km/h 10.0mph /  16.1km/h 36% 0.00in /  0mm meteobridge W/m2
11:56 80.4 °F /  26.9 °C 48.7 °F /  9.3 °C 30.16in /  1021.2hPa NE 6.0mph /  9.7km/h 14.0mph /  22.5km/h 33% 0.00in /  0mm meteobridge W/m2
12:02 80.6 °F /  27 °C 48.9 °F /  9.4 °C 30.15in /  1020.9hPa East 4.0mph /  6.4km/h 16.0mph /  25.7km/h 33% 0.00in /  0mm meteobridge W/m2
12:09 78.6 °F /  25.9 °C 48.7 °F /  9.3 °C 30.16in /  1021.2hPa NE 4.9mph /  7.9km/h 10.0mph /  16.1km/h 35% 0.00in /  0mm meteobridge W/m2
12:15 79.2 °F /  26.2 °C 46.8 °F /  8.2 °C 30.16in /  1021.2hPa North 11.0mph /  17.7km/h 13.0mph /  20.9km/h 32% 0.00in /  0mm meteobridge W/m2
12:21 79.3 °F /  26.3 °C 46.9 °F /  8.3 °C 30.16in /  1021.2hPa NNE 8.1mph /  13km/h 11.0mph /  17.7km/h 32% 0.00in /  0mm meteobridge W/m2
12:27 79.5 °F /  26.4 °C 47.1 °F /  8.4 °C 30.16in /  1021.2hPa NE 4.0mph /  6.4km/h 11.0mph /  17.7km/h 32% 0.00in /  0mm meteobridge W/m2
12:33 79.2 °F /  26.2 °C 47.7 °F /  8.7 °C 30.16in /  1021.2hPa NNE 4.9mph /  7.9km/h 11.0mph /  17.7km/h 33% 0.00in /  0mm meteobridge W/m2
12:39 77.9 °F /  25.5 °C 48.0 °F /  8.9 °C 30.16in /  1021.2hPa NE 4.9mph /  7.9km/h 11.0mph /  17.7km/h 35% 0.00in /  0mm meteobridge W/m2
12:45 78.6 °F /  25.9 °C 47.1 °F /  8.4 °C 30.16in /  1021.2hPa SE 4.9mph /  7.9km/h 13.0mph /  20.9km/h 33% 0.00in /  0mm meteobridge W/m2
12:51 80.4 °F /  26.9 °C 47.8 °F /  8.8 °C 30.15in /  1020.9hPa South 8.9mph /  14.3km/h 12.0mph /  19.3km/h 32% 0.00in /  0mm meteobridge W/m2
12:58 80.2 °F /  26.8 °C 47.7 °F /  8.7 °C 30.15in /  1020.9hPa ENE 4.0mph /  6.4km/h 5.0mph /  8km/h 32% 0.00in /  0mm meteobridge W/m2
13:04 80.1 °F /  26.7 °C 48.4 °F /  9.1 °C 30.15in /  1020.9hPa SE 4.9mph /  7.9km/h 6.0mph /  9.7km/h 33% 0.00in /  0mm meteobridge W/m2
13:10 81.9 °F /  27.7 °C 47.3 °F /  8.5 °C 30.14in /  1020.5hPa NNE 15.0mph /  24.1km/h 16.0mph /  25.7km/h 30% 0.00in /  0mm meteobridge W/m2
13:16 81.0 °F /  27.2 °C 47.5 °F /  8.6 °C 30.14in /  1020.5hPa South 11.0mph /  17.7km/h 15.0mph /  24.1km/h 31% 0.00in /  0mm meteobridge W/m2
13:22 80.2 °F /  26.8 °C 47.7 °F /  8.7 °C 30.14in /  1020.5hPa SSE 6.9mph /  11.1km/h 14.0mph /  22.5km/h 32% 0.00in /  0mm meteobridge W/m2
13:28 81.3 °F /  27.4 °C 47.8 °F /  8.8 °C 30.13in /  1020.2hPa South 23.9mph /  38.5km/h 27.0mph /  43.5km/h 31% 0.00in /  0mm meteobridge W/m2
13:34 79.9 °F /  26.6 °C 47.3 °F /  8.5 °C 30.14in /  1020.5hPa NE 4.9mph /  7.9km/h 12.0mph /  19.3km/h 32% 0.00in /  0mm meteobridge W/m2
13:40 81.0 °F /  27.2 °C 46.6 °F /  8.1 °C 30.14in /  1020.5hPa SE 6.0mph /  9.7km/h 16.0mph /  25.7km/h 30% 0.00in /  0mm meteobridge W/m2
13:46 80.2 °F /  26.8 °C 46.9 °F /  8.3 °C 30.14in /  1020.5hPa SSE 6.0mph /  9.7km/h 10.0mph /  16.1km/h 31% 0.00in /  0mm meteobridge W/m2
13:52 82.0 °F /  27.8 °C 47.5 °F /  8.6 °C 30.13in /  1020.2hPa SSE 6.0mph /  9.7km/h 18.0mph /  29km/h 30% 0.00in /  0mm meteobridge W/m2
13:59 81.3 °F /  27.4 °C 46.9 °F /  8.3 °C 30.13in /  1020.2hPa South 8.9mph /  14.3km/h 13.0mph /  20.9km/h 30% 0.00in /  0mm meteobridge W/m2
14:05 80.1 °F /  26.7 °C 45.9 °F /  7.7 °C 30.13in /  1020.2hPa SSE 10.1mph /  16.3km/h 18.0mph /  29km/h 30% 0.00in /  0mm meteobridge W/m2
14:11 79.5 °F /  26.4 °C 46.2 °F /  7.9 °C 30.13in /  1020.2hPa SSE 8.9mph /  14.3km/h 13.0mph /  20.9km/h 31% 0.00in /  0mm meteobridge W/m2
14:17 80.8 °F /  27.1 °C 48.2 °F /  9 °C 30.13in /  1020.2hPa SSW 10.1mph /  16.3km/h 13.0mph /  20.9km/h 32% 0.00in /  0mm meteobridge W/m2
14:23 79.2 °F /  26.2 °C 46.8 °F /  8.2 °C 30.12in /  1019.9hPa SSE 8.9mph /  14.3km/h 20.0mph /  32.2km/h 32% 0.00in /  0mm meteobridge W/m2
14:29 79.0 °F /  26.1 °C 46.6 °F /  8.1 °C 30.13in /  1020.2hPa South 8.1mph /  13km/h 12.0mph /  19.3km/h 32% 0.00in /  0mm meteobridge W/m2
14:35 81.3 °F /  27.4 °C 47.8 °F /  8.8 °C 30.12in /  1019.9hPa SSE 4.9mph /  7.9km/h 7.0mph /  11.3km/h 31% 0.00in /  0mm meteobridge W/m2
14:41 82.6 °F /  28.1 °C 48.0 °F /  8.9 °C 30.11in /  1019.5hPa SSE 14.1mph /  22.7km/h 21.0mph /  33.8km/h 30% 0.00in /  0mm meteobridge W/m2
14:47 83.1 °F /  28.4 °C 47.7 °F /  8.7 °C 30.11in /  1019.5hPa SSE 11.0mph /  17.7km/h 16.0mph /  25.7km/h 29% 0.00in /  0mm meteobridge W/m2
14:53 83.5 °F /  28.6 °C 47.8 °F /  8.8 °C 30.11in /  1019.5hPa SE 14.1mph /  22.7km/h 18.0mph /  29km/h 29% 0.00in /  0mm meteobridge W/m2
14:59 84.6 °F /  29.2 °C 47.8 °F /  8.8 °C 30.12in /  1019.9hPa SSE 11.0mph /  17.7km/h 23.0mph /  37km/h 28% 0.00in /  0mm meteobridge W/m2
15:05 83.8 °F /  28.8 °C 47.3 °F /  8.5 °C 30.11in /  1019.5hPa South 14.1mph /  22.7km/h 19.0mph /  30.6km/h 28% 0.00in /  0mm meteobridge W/m2
15:12 82.6 °F /  28.1 °C 47.1 °F /  8.4 °C 30.10in /  1019.2hPa SE 6.9mph /  11.1km/h 7.0mph /  11.3km/h 29% 0.00in /  0mm meteobridge W/m2
15:18 82.2 °F /  27.9 °C 46.8 °F /  8.2 °C 30.10in /  1019.2hPa South 13.0mph /  20.9km/h 13.0mph /  20.9km/h 29% 0.00in /  0mm meteobridge W/m2
15:24 80.8 °F /  27.1 °C 46.4 °F /  8 °C 30.10in /  1019.2hPa WSW 6.0mph /  9.7km/h 13.0mph /  20.9km/h 30% 0.00in /  0mm meteobridge W/m2
15:30 81.3 °F /  27.4 °C 46.0 °F /  7.8 °C 30.10in /  1019.2hPa SSE 6.0mph /  9.7km/h 16.0mph /  25.7km/h 29% 0.00in /  0mm meteobridge W/m2
15:36 82.8 °F /  28.2 °C 46.4 °F /  8 °C 30.09in /  1018.8hPa ESE 10.1mph /  16.3km/h 10.1mph /  16.3km/h 28% 0.00in /  0mm meteobridge W/m2
15:42 82.6 °F /  28.1 °C 46.2 °F /  7.9 °C 30.09in /  1018.8hPa South 6.0mph /  9.7km/h 12.0mph /  19.3km/h 28% 0.00in /  0mm meteobridge W/m2
15:48 81.0 °F /  27.2 °C 45.7 °F /  7.6 °C 30.09in /  1018.8hPa South 10.1mph /  16.3km/h 13.0mph /  20.9km/h 29% 0.00in /  0mm meteobridge W/m2
15:54 79.5 °F /  26.4 °C 45.3 °F /  7.4 °C 30.09in /  1018.8hPa SE 4.9mph /  7.9km/h 12.0mph /  19.3km/h 30% 0.00in /  0mm meteobridge W/m2
16:00 80.2 °F /  26.8 °C 45.1 °F /  7.3 °C 30.09in /  1018.8hPa SSE 2.9mph /  4.7km/h 10.0mph /  16.1km/h 29% 0.00in /  0mm meteobridge W/m2
16:06 81.3 °F /  27.4 °C 46.0 °F /  7.8 °C 30.09in /  1018.8hPa South 6.0mph /  9.7km/h 11.0mph /  17.7km/h 29% 0.00in /  0mm meteobridge W/m2
16:12 82.9 °F /  28.3 °C 45.5 °F /  7.5 °C 30.09in /  1018.8hPa SSE 6.9mph /  11.1km/h 11.0mph /  17.7km/h 27% 0.00in /  0mm meteobridge W/m2
16:18 81.0 °F /  27.2 °C 44.8 °F /  7.1 °C 30.09in /  1018.8hPa South 4.0mph /  6.4km/h 11.0mph /  17.7km/h 28% 0.00in /  0mm meteobridge W/m2
16:24 82.8 °F /  28.2 °C 45.3 °F /  7.4 °C 30.09in /  1018.8hPa South 8.9mph /  14.3km/h 16.0mph /  25.7km/h 27% 0.00in /  0mm meteobridge W/m2
16:30 83.1 °F /  28.4 °C 44.6 °F /  7 °C 30.08in /  1018.5hPa South 2.9mph /  4.7km/h 7.0mph /  11.3km/h 26% 0.00in /  0mm meteobridge W/m2
16:36 81.9 °F /  27.7 °C 44.6 °F /  7 °C 30.08in /  1018.5hPa SSE 2.0mph /  3.2km/h 10.0mph /  16.1km/h 27% 0.00in /  0mm meteobridge W/m2
16:42 83.7 °F /  28.7 °C 46.2 °F /  7.9 °C 30.08in /  1018.5hPa SW 4.9mph /  7.9km/h 12.0mph /  19.3km/h 27% 0.00in /  0mm meteobridge W/m2
16:48 84.9 °F /  29.4 °C 46.2 °F /  7.9 °C 30.08in /  1018.5hPa SSW 10.1mph /  16.3km/h 12.0mph /  19.3km/h 26% 0.00in /  0mm meteobridge W/m2
16:55 84.4 °F /  29.1 °C 45.7 °F /  7.6 °C 30.08in /  1018.5hPa SSE 10.1mph /  16.3km/h 20.0mph /  32.2km/h 26% 0.00in /  0mm meteobridge W/m2
17:01 83.5 °F /  28.6 °C 46.0 °F /  7.8 °C 30.08in /  1018.5hPa South 8.1mph /  13km/h 13.0mph /  20.9km/h 27% 0.00in /  0mm meteobridge W/m2
17:07 83.1 °F /  28.4 °C 45.7 °F /  7.6 °C 30.08in /  1018.5hPa South 8.9mph /  14.3km/h 14.0mph /  22.5km/h 27% 0.00in /  0mm meteobridge W/m2
17:13 81.0 °F /  27.2 °C 44.8 °F /  7.1 °C 30.08in /  1018.5hPa SSE 6.0mph /  9.7km/h 9.0mph /  14.5km/h 28% 0.00in /  0mm meteobridge W/m2
17:19 79.9 °F /  26.6 °C 43.9 °F /  6.6 °C 30.08in /  1018.5hPa SSW 6.9mph /  11.1km/h 11.0mph /  17.7km/h 28% 0.00in /  0mm meteobridge W/m2
17:25 79.9 °F /  26.6 °C 44.8 °F /  7.1 °C 30.07in /  1018.2hPa South 6.9mph /  11.1km/h 12.0mph /  19.3km/h 29% 0.00in /  0mm meteobridge W/m2
17:31 79.7 °F /  26.5 °C 45.5 °F /  7.5 °C 30.08in /  1018.5hPa South 11.0mph /  17.7km/h 16.0mph /  25.7km/h 30% 0.00in /  0mm meteobridge W/m2
17:37 79.5 °F /  26.4 °C 45.3 °F /  7.4 °C 30.07in /  1018.2hPa South 6.9mph /  11.1km/h 9.0mph /  14.5km/h 30% 0.00in /  0mm meteobridge W/m2
17:43 80.1 °F /  26.7 °C 45.0 °F /  7.2 °C 30.08in /  1018.5hPa South 4.9mph /  7.9km/h 12.0mph /  19.3km/h 29% 0.00in /  0mm meteobridge W/m2
17:49 80.4 °F /  26.9 °C 45.3 °F /  7.4 °C 30.08in /  1018.5hPa SW 4.9mph /  7.9km/h 15.0mph /  24.1km/h 29% 0.00in /  0mm meteobridge W/m2
17:56 79.9 °F /  26.6 °C 45.7 °F /  7.6 °C 30.09in /  1018.8hPa SSE 8.9mph /  14.3km/h 10.0mph /  16.1km/h 30% 0.00in /  0mm meteobridge W/m2
18:02 79.2 °F /  26.2 °C 45.1 °F /  7.3 °C 30.09in /  1018.8hPa SSW 6.0mph /  9.7km/h 6.0mph /  9.7km/h 30% 0.00in /  0mm meteobridge W/m2
18:22 79.5 °F /  26.4 °C 44.4 °F /  6.9 °C 30.08in /  1018.5hPa SSW 4.0mph /  6.4km/h 17.0mph /  27.4km/h 29% 0.00in /  0mm meteobridge W/m2
18:28 79.9 °F /  26.6 °C 44.8 °F /  7.1 °C 30.09in /  1018.8hPa SSW 12.1mph /  19.5km/h 13.0mph /  20.9km/h 29% 0.00in /  0mm meteobridge W/m2
18:34 80.4 °F /  26.9 °C 45.3 °F /  7.4 °C 30.09in /  1018.8hPa South 6.9mph /  11.1km/h 9.0mph /  14.5km/h 29% 0.00in /  0mm meteobridge W/m2
18:40 81.1 °F /  27.3 °C 44.1 °F /  6.7 °C 30.09in /  1018.8hPa South 11.0mph /  17.7km/h 14.0mph /  22.5km/h 27% 0.00in /  0mm meteobridge W/m2
18:47 80.2 °F /  26.8 °C 43.2 °F /  6.2 °C 30.10in /  1019.2hPa South 17.0mph /  27.4km/h 17.0mph /  27.4km/h 27% 0.00in /  0mm meteobridge W/m2
18:53 79.5 °F /  26.4 °C 42.6 °F /  5.9 °C 30.10in /  1019.2hPa South 6.0mph /  9.7km/h 17.0mph /  27.4km/h 27% 0.00in /  0mm meteobridge W/m2
18:59 79.2 °F /  26.2 °C 42.3 °F /  5.7 °C 30.10in /  1019.2hPa South 6.9mph /  11.1km/h 15.0mph /  24.1km/h 27% 0.00in /  0mm meteobridge W/m2
19:05 78.3 °F /  25.7 °C 42.4 °F /  5.8 °C 30.11in /  1019.5hPa South 10.1mph /  16.3km/h 17.0mph /  27.4km/h 28% 0.00in /  0mm meteobridge W/m2
19:11 77.5 °F /  25.3 °C 41.9 °F /  5.5 °C 30.11in /  1019.5hPa SSE 11.0mph /  17.7km/h 18.0mph /  29km/h 28% 0.00in /  0mm meteobridge W/m2
19:17 76.8 °F /  24.9 °C 41.2 °F /  5.1 °C 30.11in /  1019.5hPa SSE 6.0mph /  9.7km/h 12.0mph /  19.3km/h 28% 0.00in /  0mm meteobridge W/m2
19:24 76.8 °F /  24.9 °C 41.2 °F /  5.1 °C 30.11in /  1019.5hPa SSE 6.0mph /  9.7km/h 6.0mph /  9.7km/h 28% 0.00in /  0mm meteobridge W/m2
19:31 76.8 °F /  24.9 °C 41.2 °F /  5.1 °C 30.11in /  1019.5hPa SSE 6.0mph /  9.7km/h -999.0mph /  -1607.7km/h 28% 0.00in /  0mm meteobridge W/m2
Regenstein, Windhoek, Namibia
Compliments of Weather Underground - 2.5 mb